sensor_id;sensor_type;location;lat;lon;timestamp;P1;durP1;ratioP1;P2;durP2;ratioP2
18425;SDS011;9340;48.756;9.226;2022-07-18T00:01:57;1.70;;;1.60;;
18425;SDS011;9340;48.756;9.226;2022-07-18T00:04:25;2.47;;;1.40;;
18425;SDS011;9340;48.756;9.226;2022-07-18T00:06:54;1.77;;;1.60;;
18425;SDS011;9340;48.756;9.226;2022-07-18T00:09:22;2.30;;;1.63;;
18425;SDS011;9340;48.756;9.226;2022-07-18T00:11:49;2.50;;;1.70;;
18425;SDS011;9340;48.756;9.226;2022-07-18T00:14:15;1.90;;;1.37;;
18425;SDS011;9340;48.756;9.226;2022-07-18T00:16:42;1.23;;;1.13;;
18425;SDS011;9340;48.756;9.226;2022-07-18T00:19:09;1.80;;;1.40;;
18425;SDS011;9340;48.756;9.226;2022-07-18T00:21:36;1.33;;;1.23;;
18425;SDS011;9340;48.756;9.226;2022-07-18T00:24:04;1.93;;;1.50;;
18425;SDS011;9340;48.756;9.226;2022-07-18T00:26:31;1.60;;;1.40;;
18425;SDS011;9340;48.756;9.226;2022-07-18T00:28:58;1.30;;;1.20;;
18425;SDS011;9340;48.756;9.226;2022-07-18T00:31:24;1.40;;;1.30;;
18425;SDS011;9340;48.756;9.226;2022-07-18T00:33:51;1.60;;;1.43;;
18425;SDS011;9340;48.756;9.226;2022-07-18T00:36:18;2.23;;;1.37;;
18425;SDS011;9340;48.756;9.226;2022-07-18T00:38:45;1.43;;;1.33;;
18425;SDS011;9340;48.756;9.226;2022-07-18T00:41:15;1.70;;;1.30;;
18425;SDS011;9340;48.756;9.226;2022-07-18T00:43:42;1.17;;;1.07;;
18425;SDS011;9340;48.756;9.226;2022-07-18T00:46:09;1.70;;;1.47;;
18425;SDS011;9340;48.756;9.226;2022-07-18T00:48:37;2.00;;;1.90;;
18425;SDS011;9340;48.756;9.226;2022-07-18T00:51:03;3.17;;;1.40;;
18425;SDS011;9340;48.756;9.226;2022-07-18T00:53:30;2.33;;;1.30;;
18425;SDS011;9340;48.756;9.226;2022-07-18T00:55:57;2.57;;;1.60;;
18425;SDS011;9340;48.756;9.226;2022-07-18T00:58:26;1.63;;;1.53;;
18425;SDS011;9340;48.756;9.226;2022-07-18T01:00:53;1.30;;;1.20;;
18425;SDS011;9340;48.756;9.226;2022-07-18T01:03:38;1.97;;;1.40;;
18425;SDS011;9340;48.756;9.226;2022-07-18T01:06:05;1.70;;;1.30;;
18425;SDS011;9340;48.756;9.226;2022-07-18T01:08:32;1.50;;;1.40;;
18425;SDS011;9340;48.756;9.226;2022-07-18T01:11:00;3.73;;;1.50;;
18425;SDS011;9340;48.756;9.226;2022-07-18T01:13:28;2.13;;;1.20;;
18425;SDS011;9340;48.756;9.226;2022-07-18T01:15:55;2.83;;;1.83;;
18425;SDS011;9340;48.756;9.226;2022-07-18T01:18:21;1.77;;;1.37;;
18425;SDS011;9340;48.756;9.226;2022-07-18T01:20:49;1.70;;;1.60;;
18425;SDS011;9340;48.756;9.226;2022-07-18T01:23:16;2.00;;;1.40;;
18425;SDS011;9340;48.756;9.226;2022-07-18T01:25:43;1.30;;;1.20;;
18425;SDS011;9340;48.756;9.226;2022-07-18T01:28:10;2.43;;;1.60;;
18425;SDS011;9340;48.756;9.226;2022-07-18T01:30:37;1.47;;;1.30;;
18425;SDS011;9340;48.756;9.226;2022-07-18T01:33:03;1.63;;;1.33;;
18425;SDS011;9340;48.756;9.226;2022-07-18T01:35:30;2.40;;;1.50;;
18425;SDS011;9340;48.756;9.226;2022-07-18T01:38:00;1.37;;;1.17;;
18425;SDS011;9340;48.756;9.226;2022-07-18T01:40:27;1.77;;;1.30;;
18425;SDS011;9340;48.756;9.226;2022-07-18T01:42:54;2.37;;;1.30;;
18425;SDS011;9340;48.756;9.226;2022-07-18T01:45:21;2.13;;;1.33;;
18425;SDS011;9340;48.756;9.226;2022-07-18T01:47:48;3.70;;;1.40;;
18425;SDS011;9340;48.756;9.226;2022-07-18T01:50:15;1.50;;;1.30;;
18425;SDS011;9340;48.756;9.226;2022-07-18T01:52:42;1.97;;;1.30;;
18425;SDS011;9340;48.756;9.226;2022-07-18T01:55:10;1.53;;;1.43;;
18425;SDS011;9340;48.756;9.226;2022-07-18T01:57:37;1.97;;;1.53;;
18425;SDS011;9340;48.756;9.226;2022-07-18T02:00:05;1.53;;;1.30;;
18425;SDS011;9340;48.756;9.226;2022-07-18T02:02:35;2.23;;;1.40;;
18425;SDS011;9340;48.756;9.226;2022-07-18T02:05:02;1.50;;;1.30;;
18425;SDS011;9340;48.756;9.226;2022-07-18T02:07:30;2.83;;;1.63;;
18425;SDS011;9340;48.756;9.226;2022-07-18T02:09:59;2.13;;;1.53;;
18425;SDS011;9340;48.756;9.226;2022-07-18T02:12:31;2.20;;;1.20;;
18425;SDS011;9340;48.756;9.226;2022-07-18T02:14:57;1.63;;;1.50;;
18425;SDS011;9340;48.756;9.226;2022-07-18T02:17:24;1.67;;;1.33;;
18425;SDS011;9340;48.756;9.226;2022-07-18T02:19:51;1.60;;;1.30;;
18425;SDS011;9340;48.756;9.226;2022-07-18T02:22:17;1.63;;;1.30;;
18425;SDS011;9340;48.756;9.226;2022-07-18T02:24:44;2.27;;;1.40;;
18425;SDS011;9340;48.756;9.226;2022-07-18T02:27:11;2.10;;;1.60;;
18425;SDS011;9340;48.756;9.226;2022-07-18T02:29:39;2.37;;;1.33;;
18425;SDS011;9340;48.756;9.226;2022-07-18T02:32:06;2.60;;;1.67;;
18425;SDS011;9340;48.756;9.226;2022-07-18T02:34:33;1.70;;;1.43;;
18425;SDS011;9340;48.756;9.226;2022-07-18T02:37:00;2.57;;;1.90;;
18425;SDS011;9340;48.756;9.226;2022-07-18T02:39:27;4.33;;;1.63;;
18425;SDS011;9340;48.756;9.226;2022-07-18T02:41:54;1.70;;;1.60;;
18425;SDS011;9340;48.756;9.226;2022-07-18T02:44:21;3.37;;;1.50;;
18425;SDS011;9340;48.756;9.226;2022-07-18T02:46:49;1.50;;;1.40;;
18425;SDS011;9340;48.756;9.226;2022-07-18T02:49:16;2.57;;;1.40;;
18425;SDS011;9340;48.756;9.226;2022-07-18T02:51:53;2.07;;;1.60;;
18425;SDS011;9340;48.756;9.226;2022-07-18T02:54:20;1.93;;;1.60;;
18425;SDS011;9340;48.756;9.226;2022-07-18T02:56:47;1.97;;;1.63;;
18425;SDS011;9340;48.756;9.226;2022-07-18T02:59:14;3.00;;;1.40;;
18425;SDS011;9340;48.756;9.226;2022-07-18T03:01:41;1.77;;;1.57;;
18425;SDS011;9340;48.756;9.226;2022-07-18T03:04:09;1.70;;;1.60;;
18425;SDS011;9340;48.756;9.226;2022-07-18T03:06:36;2.57;;;1.60;;
18425;SDS011;9340;48.756;9.226;2022-07-18T03:09:03;2.77;;;1.50;;
18425;SDS011;9340;48.756;9.226;2022-07-18T03:11:29;2.53;;;1.80;;
18425;SDS011;9340;48.756;9.226;2022-07-18T03:13:56;1.93;;;1.60;;
18425;SDS011;9340;48.756;9.226;2022-07-18T03:16:23;2.40;;;1.80;;
18425;SDS011;9340;48.756;9.226;2022-07-18T03:18:50;2.23;;;1.80;;
18425;SDS011;9340;48.756;9.226;2022-07-18T03:21:18;2.20;;;1.80;;
18425;SDS011;9340;48.756;9.226;2022-07-18T03:23:45;2.37;;;1.70;;
18425;SDS011;9340;48.756;9.226;2022-07-18T03:26:12;2.50;;;2.30;;
18425;SDS011;9340;48.756;9.226;2022-07-18T03:28:39;4.67;;;2.57;;
18425;SDS011;9340;48.756;9.226;2022-07-18T03:31:05;3.23;;;2.17;;
18425;SDS011;9340;48.756;9.226;2022-07-18T03:33:32;4.30;;;2.37;;
18425;SDS011;9340;48.756;9.226;2022-07-18T03:35:59;5.17;;;2.53;;
18425;SDS011;9340;48.756;9.226;2022-07-18T03:38:27;3.17;;;2.53;;
18425;SDS011;9340;48.756;9.226;2022-07-18T03:40:53;3.43;;;2.40;;
18425;SDS011;9340;48.756;9.226;2022-07-18T03:43:20;2.70;;;2.27;;
18425;SDS011;9340;48.756;9.226;2022-07-18T03:45:47;2.30;;;1.90;;
18425;SDS011;9340;48.756;9.226;2022-07-18T03:48:13;2.33;;;2.13;;
18425;SDS011;9340;48.756;9.226;2022-07-18T03:50:40;2.40;;;2.20;;
18425;SDS011;9340;48.756;9.226;2022-07-18T03:53:07;3.10;;;1.90;;
18425;SDS011;9340;48.756;9.226;2022-07-18T03:55:35;2.13;;;1.93;;
18425;SDS011;9340;48.756;9.226;2022-07-18T03:58:02;3.10;;;2.30;;
18425;SDS011;9340;48.756;9.226;2022-07-18T04:00:28;3.30;;;1.80;;
18425;SDS011;9340;48.756;9.226;2022-07-18T04:02:55;2.83;;;1.90;;
18425;SDS011;9340;48.756;9.226;2022-07-18T04:05:22;2.60;;;2.30;;
18425;SDS011;9340;48.756;9.226;2022-07-18T04:07:48;2.77;;;2.23;;
18425;SDS011;9340;48.756;9.226;2022-07-18T04:10:15;2.40;;;2.13;;
18425;SDS011;9340;48.756;9.226;2022-07-18T04:12:46;5.10;;;2.90;;
18425;SDS011;9340;48.756;9.226;2022-07-18T04:15:14;4.23;;;2.80;;
18425;SDS011;9340;48.756;9.226;2022-07-18T04:17:41;3.37;;;2.73;;
18425;SDS011;9340;48.756;9.226;2022-07-18T04:20:08;3.33;;;3.03;;
18425;SDS011;9340;48.756;9.226;2022-07-18T04:22:43;2.60;;;2.40;;
18425;SDS011;9340;48.756;9.226;2022-07-18T04:25:11;4.80;;;2.47;;
18425;SDS011;9340;48.756;9.226;2022-07-18T04:27:38;2.93;;;2.50;;
18425;SDS011;9340;48.756;9.226;2022-07-18T04:30:06;5.37;;;2.80;;
18425;SDS011;9340;48.756;9.226;2022-07-18T04:32:34;3.53;;;2.20;;
18425;SDS011;9340;48.756;9.226;2022-07-18T04:35:00;2.27;;;2.07;;
18425;SDS011;9340;48.756;9.226;2022-07-18T04:37:28;2.50;;;2.30;;
18425;SDS011;9340;48.756;9.226;2022-07-18T04:39:56;3.50;;;2.40;;
18425;SDS011;9340;48.756;9.226;2022-07-18T04:42:23;3.30;;;2.37;;
18425;SDS011;9340;48.756;9.226;2022-07-18T04:44:49;2.73;;;2.40;;
18425;SDS011;9340;48.756;9.226;2022-07-18T04:47:17;2.40;;;2.20;;
18425;SDS011;9340;48.756;9.226;2022-07-18T04:49:44;2.97;;;2.67;;
18425;SDS011;9340;48.756;9.226;2022-07-18T04:52:11;3.33;;;2.67;;
18425;SDS011;9340;48.756;9.226;2022-07-18T04:54:38;2.23;;;2.03;;
18425;SDS011;9340;48.756;9.226;2022-07-18T04:57:04;9.83;;;2.70;;
18425;SDS011;9340;48.756;9.226;2022-07-18T04:59:31;5.10;;;2.60;;
18425;SDS011;9340;48.756;9.226;2022-07-18T05:01:58;3.33;;;2.63;;
18425;SDS011;9340;48.756;9.226;2022-07-18T05:04:26;2.50;;;2.30;;
18425;SDS011;9340;48.756;9.226;2022-07-18T05:06:52;3.50;;;2.93;;
18425;SDS011;9340;48.756;9.226;2022-07-18T05:09:19;3.87;;;2.60;;
18425;SDS011;9340;48.756;9.226;2022-07-18T05:11:46;3.50;;;2.83;;
18425;SDS011;9340;48.756;9.226;2022-07-18T05:14:12;3.23;;;2.93;;
18425;SDS011;9340;48.756;9.226;2022-07-18T05:16:39;3.43;;;2.73;;
18425;SDS011;9340;48.756;9.226;2022-07-18T05:19:06;3.30;;;2.93;;
18425;SDS011;9340;48.756;9.226;2022-07-18T05:21:34;3.20;;;2.90;;
18425;SDS011;9340;48.756;9.226;2022-07-18T05:24:00;3.10;;;2.80;;
18425;SDS011;9340;48.756;9.226;2022-07-18T05:26:27;3.53;;;3.23;;
18425;SDS011;9340;48.756;9.226;2022-07-18T05:28:54;2.90;;;2.70;;
18425;SDS011;9340;48.756;9.226;2022-07-18T05:31:20;4.70;;;2.70;;
18425;SDS011;9340;48.756;9.226;2022-07-18T05:33:47;3.40;;;3.10;;
18425;SDS011;9340;48.756;9.226;2022-07-18T05:36:14;4.80;;;3.53;;
18425;SDS011;9340;48.756;9.226;2022-07-18T05:38:42;3.83;;;3.30;;
18425;SDS011;9340;48.756;9.226;2022-07-18T05:41:08;4.30;;;3.27;;
18425;SDS011;9340;48.756;9.226;2022-07-18T05:43:35;3.50;;;2.72;;
18425;SDS011;9340;48.756;9.226;2022-07-18T05:46:02;3.47;;;3.17;;
18425;SDS011;9340;48.756;9.226;2022-07-18T05:48:29;3.45;;;3.15;;
18425;SDS011;9340;48.756;9.226;2022-07-18T05:50:56;5.03;;;3.65;;
18425;SDS011;9340;48.756;9.226;2022-07-18T05:53:23;3.63;;;3.33;;
18425;SDS011;9340;48.756;9.226;2022-07-18T05:55:51;5.05;;;3.20;;
18425;SDS011;9340;48.756;9.226;2022-07-18T05:58:17;3.20;;;3.00;;
18425;SDS011;9340;48.756;9.226;2022-07-18T06:00:44;4.25;;;2.97;;
18425;SDS011;9340;48.756;9.226;2022-07-18T06:03:11;4.10;;;3.53;;
18425;SDS011;9340;48.756;9.226;2022-07-18T06:05:38;5.60;;;3.78;;
18425;SDS011;9340;48.756;9.226;2022-07-18T06:08:05;5.30;;;2.90;;
18425;SDS011;9340;48.756;9.226;2022-07-18T06:10:32;6.75;;;3.53;;
18425;SDS011;9340;48.756;9.226;2022-07-18T06:13:00;3.88;;;3.47;;
18425;SDS011;9340;48.756;9.226;2022-07-18T06:15:27;5.72;;;3.75;;
18425;SDS011;9340;48.756;9.226;2022-07-18T06:17:54;3.88;;;3.13;;
18425;SDS011;9340;48.756;9.226;2022-07-18T06:20:20;3.70;;;2.75;;
18425;SDS011;9340;48.756;9.226;2022-07-18T06:22:47;5.50;;;3.25;;
18425;SDS011;9340;48.756;9.226;2022-07-18T06:25:14;3.83;;;3.13;;
18425;SDS011;9340;48.756;9.226;2022-07-18T06:27:40;4.65;;;3.25;;
18425;SDS011;9340;48.756;9.226;2022-07-18T06:30:09;4.63;;;3.45;;
18425;SDS011;9340;48.756;9.226;2022-07-18T06:32:36;3.22;;;2.90;;
18425;SDS011;9340;48.756;9.226;2022-07-18T06:35:04;5.03;;;3.42;;
18425;SDS011;9340;48.756;9.226;2022-07-18T06:37:31;3.95;;;3.55;;
18425;SDS011;9340;48.756;9.226;2022-07-18T06:39:58;5.10;;;3.28;;
18425;SDS011;9340;48.756;9.226;2022-07-18T06:42:24;4.82;;;3.50;;
18425;SDS011;9340;48.756;9.226;2022-07-18T06:44:51;5.65;;;3.78;;
18425;SDS011;9340;48.756;9.226;2022-07-18T06:47:19;5.13;;;3.63;;
18425;SDS011;9340;48.756;9.226;2022-07-18T06:49:46;3.50;;;3.20;;
18425;SDS011;9340;48.756;9.226;2022-07-18T06:52:12;6.32;;;3.60;;
18425;SDS011;9340;48.756;9.226;2022-07-18T06:54:40;4.03;;;3.20;;
18425;SDS011;9340;48.756;9.226;2022-07-18T06:57:07;4.20;;;3.60;;
18425;SDS011;9340;48.756;9.226;2022-07-18T06:59:34;4.22;;;3.83;;
18425;SDS011;9340;48.756;9.226;2022-07-18T07:02:01;5.38;;;3.60;;
18425;SDS011;9340;48.756;9.226;2022-07-18T07:04:29;4.53;;;3.50;;
18425;SDS011;9340;48.756;9.226;2022-07-18T07:06:56;4.10;;;3.17;;
18425;SDS011;9340;48.756;9.226;2022-07-18T07:09:23;3.33;;;3.03;;
18425;SDS011;9340;48.756;9.226;2022-07-18T07:11:49;4.20;;;3.80;;
18425;SDS011;9340;48.756;9.226;2022-07-18T07:14:16;4.80;;;2.95;;
18425;SDS011;9340;48.756;9.226;2022-07-18T07:16:43;4.35;;;3.55;;
18425;SDS011;9340;48.756;9.226;2022-07-18T07:19:09;4.25;;;3.60;;
18425;SDS011;9340;48.756;9.226;2022-07-18T07:21:37;4.40;;;3.13;;
18425;SDS011;9340;48.756;9.226;2022-07-18T07:24:04;3.90;;;3.10;;
18425;SDS011;9340;48.756;9.226;2022-07-18T07:26:32;3.25;;;2.83;;
18425;SDS011;9340;48.756;9.226;2022-07-18T07:28:59;3.72;;;3.10;;
18425;SDS011;9340;48.756;9.226;2022-07-18T07:31:26;4.47;;;2.83;;
18425;SDS011;9340;48.756;9.226;2022-07-18T07:33:53;3.65;;;3.03;;
18425;SDS011;9340;48.756;9.226;2022-07-18T07:36:20;5.75;;;3.15;;
18425;SDS011;9340;48.756;9.226;2022-07-18T07:38:48;3.05;;;2.85;;
18425;SDS011;9340;48.756;9.226;2022-07-18T07:41:15;4.13;;;2.63;;
18425;SDS011;9340;48.756;9.226;2022-07-18T07:43:42;2.95;;;2.40;;
18425;SDS011;9340;48.756;9.226;2022-07-18T07:46:09;3.50;;;2.65;;
18425;SDS011;9340;48.756;9.226;2022-07-18T07:48:36;5.57;;;2.63;;
18425;SDS011;9340;48.756;9.226;2022-07-18T07:51:04;4.57;;;3.15;;
18425;SDS011;9340;48.756;9.226;2022-07-18T07:53:31;3.08;;;2.78;;
18425;SDS011;9340;48.756;9.226;2022-07-18T07:55:59;5.75;;;2.42;;
18425;SDS011;9340;48.756;9.226;2022-07-18T07:58:26;3.10;;;2.80;;
18425;SDS011;9340;48.756;9.226;2022-07-18T08:00:52;2.78;;;2.47;;
18425;SDS011;9340;48.756;9.226;2022-07-18T08:03:19;3.13;;;2.55;;
18425;SDS011;9340;48.756;9.226;2022-07-18T08:05:46;3.80;;;2.85;;
18425;SDS011;9340;48.756;9.226;2022-07-18T08:08:14;4.80;;;2.58;;
18425;SDS011;9340;48.756;9.226;2022-07-18T08:10:41;7.15;;;3.10;;
18425;SDS011;9340;48.756;9.226;2022-07-18T08:13:11;2.95;;;2.70;;
18425;SDS011;9340;48.756;9.226;2022-07-18T08:15:38;3.78;;;3.33;;
18425;SDS011;9340;48.756;9.226;2022-07-18T08:18:05;3.97;;;2.78;;
18425;SDS011;9340;48.756;9.226;2022-07-18T08:20:33;5.93;;;3.28;;
18425;SDS011;9340;48.756;9.226;2022-07-18T08:23:01;5.70;;;2.92;;
18425;SDS011;9340;48.756;9.226;2022-07-18T08:25:29;4.38;;;3.30;;
18425;SDS011;9340;48.756;9.226;2022-07-18T08:27:57;3.33;;;2.80;;
18425;SDS011;9340;48.756;9.226;2022-07-18T08:30:25;4.75;;;3.13;;
18425;SDS011;9340;48.756;9.226;2022-07-18T08:32:52;5.75;;;3.38;;
18425;SDS011;9340;48.756;9.226;2022-07-18T08:35:19;4.20;;;2.97;;
18425;SDS011;9340;48.756;9.226;2022-07-18T08:37:46;5.30;;;3.47;;
18425;SDS011;9340;48.756;9.226;2022-07-18T08:40:13;3.83;;;3.00;;
18425;SDS011;9340;48.756;9.226;2022-07-18T08:42:40;5.15;;;3.15;;
18425;SDS011;9340;48.756;9.226;2022-07-18T08:45:07;6.15;;;2.90;;
18425;SDS011;9340;48.756;9.226;2022-07-18T08:47:35;6.30;;;3.00;;
18425;SDS011;9340;48.756;9.226;2022-07-18T08:50:03;3.45;;;2.88;;
18425;SDS011;9340;48.756;9.226;2022-07-18T08:52:30;5.28;;;3.25;;
18425;SDS011;9340;48.756;9.226;2022-07-18T08:55:00;5.95;;;3.40;;
18425;SDS011;9340;48.756;9.226;2022-07-18T08:57:28;3.40;;;3.10;;
18425;SDS011;9340;48.756;9.226;2022-07-18T08:59:55;5.70;;;2.88;;
18425;SDS011;9340;48.756;9.226;2022-07-18T09:02:23;4.30;;;3.05;;
18425;SDS011;9340;48.756;9.226;2022-07-18T09:04:53;5.70;;;3.00;;
18425;SDS011;9340;48.756;9.226;2022-07-18T09:07:23;3.78;;;3.22;;
18425;SDS011;9340;48.756;9.226;2022-07-18T09:09:53;6.20;;;3.20;;
18425;SDS011;9340;48.756;9.226;2022-07-18T09:12:21;4.45;;;3.25;;
18425;SDS011;9340;48.756;9.226;2022-07-18T09:14:48;5.60;;;3.40;;
18425;SDS011;9340;48.756;9.226;2022-07-18T09:17:15;5.80;;;3.20;;
18425;SDS011;9340;48.756;9.226;2022-07-18T09:19:56;4.53;;;2.55;;
18425;SDS011;9340;48.756;9.226;2022-07-18T09:22:26;5.97;;;3.30;;
18425;SDS011;9340;48.756;9.226;2022-07-18T09:24:55;5.63;;;3.00;;
18425;SDS011;9340;48.756;9.226;2022-07-18T09:27:28;2.90;;;2.70;;
18425;SDS011;9340;48.756;9.226;2022-07-18T09:32:51;3.72;;;2.97;;
18425;SDS011;9340;48.756;9.226;2022-07-18T09:35:22;5.80;;;2.92;;
18425;SDS011;9340;48.756;9.226;2022-07-18T09:38:01;3.10;;;2.50;;
18425;SDS011;9340;48.756;9.226;2022-07-18T09:40:30;5.38;;;2.42;;
18425;SDS011;9340;48.756;9.226;2022-07-18T09:42:59;3.05;;;2.63;;
18425;SDS011;9340;48.756;9.226;2022-07-18T09:45:28;3.30;;;2.30;;
18425;SDS011;9340;48.756;9.226;2022-07-18T09:47:57;2.72;;;2.53;;
18425;SDS011;9340;48.756;9.226;2022-07-18T09:50:29;4.10;;;2.70;;
18425;SDS011;9340;48.756;9.226;2022-07-18T09:52:58;2.80;;;2.28;;
18425;SDS011;9340;48.756;9.226;2022-07-18T09:55:26;6.25;;;3.03;;
18425;SDS011;9340;48.756;9.226;2022-07-18T09:57:57;3.20;;;2.45;;
18425;SDS011;9340;48.756;9.226;2022-07-18T10:00:28;2.58;;;2.38;;
18425;SDS011;9340;48.756;9.226;2022-07-18T10:02:56;3.40;;;2.58;;
18425;SDS011;9340;48.756;9.226;2022-07-18T10:05:27;3.03;;;2.72;;
18425;SDS011;9340;48.756;9.226;2022-07-18T10:07:56;3.22;;;2.58;;
18425;SDS011;9340;48.756;9.226;2022-07-18T10:10:23;5.75;;;2.55;;
18425;SDS011;9340;48.756;9.226;2022-07-18T10:12:51;2.47;;;2.38;;
18425;SDS011;9340;48.756;9.226;2022-07-18T10:15:20;3.38;;;2.40;;
18425;SDS011;9340;48.756;9.226;2022-07-18T10:17:48;2.65;;;2.45;;
18425;SDS011;9340;48.756;9.226;2022-07-18T10:20:15;3.45;;;2.90;;
18425;SDS011;9340;48.756;9.226;2022-07-18T10:22:43;2.42;;;2.20;;
18425;SDS011;9340;48.756;9.226;2022-07-18T10:25:12;2.40;;;2.20;;
18425;SDS011;9340;48.756;9.226;2022-07-18T10:27:48;13.48;;;6.47;;
18425;SDS011;9340;48.756;9.226;2022-07-18T10:30:16;2.70;;;2.50;;
18425;SDS011;9340;48.756;9.226;2022-07-18T10:32:44;5.22;;;3.72;;
18425;SDS011;9340;48.756;9.226;2022-07-18T10:35:14;8.70;;;4.07;;
18425;SDS011;9340;48.756;9.226;2022-07-18T10:37:41;5.72;;;4.30;;
18425;SDS011;9340;48.756;9.226;2022-07-18T10:40:23;2.80;;;2.50;;
18425;SDS011;9340;48.756;9.226;2022-07-18T10:45:56;1.63;;;1.52;;
18425;SDS011;9340;48.756;9.226;2022-07-18T10:51:28;4.43;;;2.50;;
18425;SDS011;9340;48.756;9.226;2022-07-18T10:54:10;3.13;;;2.53;;
18425;SDS011;9340;48.756;9.226;2022-07-18T10:59:31;2.20;;;2.00;;
18425;SDS011;9340;48.756;9.226;2022-07-18T11:01:59;4.65;;;3.25;;
18425;SDS011;9340;48.756;9.226;2022-07-18T11:04:30;3.40;;;2.33;;
18425;SDS011;9340;48.756;9.226;2022-07-18T11:07:04;4.60;;;2.33;;
18425;SDS011;9340;48.756;9.226;2022-07-18T11:09:38;2.17;;;1.90;;
18425;SDS011;9340;48.756;9.226;2022-07-18T11:12:26;2.55;;;2.15;;
18425;SDS011;9340;48.756;9.226;2022-07-18T11:15:04;3.47;;;2.03;;
18425;SDS011;9340;48.756;9.226;2022-07-18T11:17:57;1.90;;;1.80;;
18425;SDS011;9340;48.756;9.226;2022-07-18T11:20:37;2.67;;;1.80;;
18425;SDS011;9340;48.756;9.226;2022-07-18T11:23:16;2.63;;;2.08;;
18425;SDS011;9340;48.756;9.226;2022-07-18T11:25:47;3.35;;;2.10;;
18425;SDS011;9340;48.756;9.226;2022-07-18T11:28:14;1.92;;;1.83;;
18425;SDS011;9340;48.756;9.226;2022-07-18T11:30:42;3.22;;;1.65;;
18425;SDS011;9340;48.756;9.226;2022-07-18T11:33:22;2.70;;;1.85;;
18425;SDS011;9340;48.756;9.226;2022-07-18T11:35:51;2.17;;;1.83;;
18425;SDS011;9340;48.756;9.226;2022-07-18T11:38:18;2.95;;;1.95;;
18425;SDS011;9340;48.756;9.226;2022-07-18T11:40:50;4.25;;;1.80;;
18425;SDS011;9340;48.756;9.226;2022-07-18T11:43:21;1.65;;;1.40;;
18425;SDS011;9340;48.756;9.226;2022-07-18T11:45:58;1.63;;;1.52;;
18425;SDS011;9340;48.756;9.226;2022-07-18T11:48:26;1.60;;;1.50;;
18425;SDS011;9340;48.756;9.226;2022-07-18T11:50:53;2.35;;;1.80;;
18425;SDS011;9340;48.756;9.226;2022-07-18T11:53:20;2.30;;;1.90;;
18425;SDS011;9340;48.756;9.226;2022-07-18T11:55:47;3.72;;;1.80;;
18425;SDS011;9340;48.756;9.226;2022-07-18T11:58:16;2.00;;;1.80;;
18425;SDS011;9340;48.756;9.226;2022-07-18T12:00:43;2.33;;;2.13;;
18425;SDS011;9340;48.756;9.226;2022-07-18T12:03:12;3.70;;;1.88;;
18425;SDS011;9340;48.756;9.226;2022-07-18T12:05:41;2.08;;;1.90;;
18425;SDS011;9340;48.756;9.226;2022-07-18T12:11:08;2.20;;;2.00;;
18425;SDS011;9340;48.756;9.226;2022-07-18T12:16:24;2.35;;;2.20;;
18425;SDS011;9340;48.756;9.226;2022-07-18T12:18:56;2.00;;;1.90;;
18425;SDS011;9340;48.756;9.226;2022-07-18T12:21:23;2.13;;;2.03;;
18425;SDS011;9340;48.756;9.226;2022-07-18T12:23:50;4.40;;;2.13;;
18425;SDS011;9340;48.756;9.226;2022-07-18T12:26:27;3.13;;;2.03;;
18425;SDS011;9340;48.756;9.226;2022-07-18T12:29:05;2.10;;;1.90;;
18425;SDS011;9340;48.756;9.226;2022-07-18T12:31:37;2.47;;;2.28;;
18425;SDS011;9340;48.756;9.226;2022-07-18T12:34:09;2.13;;;1.92;;
18425;SDS011;9340;48.756;9.226;2022-07-18T12:36:49;2.75;;;2.20;;
18425;SDS011;9340;48.756;9.226;2022-07-18T12:39:26;2.38;;;2.10;;
18425;SDS011;9340;48.756;9.226;2022-07-18T12:41:54;3.53;;;1.92;;
18425;SDS011;9340;48.756;9.226;2022-07-18T12:44:23;2.22;;;2.03;;
18425;SDS011;9340;48.756;9.226;2022-07-18T12:46:51;2.15;;;1.92;;
18425;SDS011;9340;48.756;9.226;2022-07-18T12:49:17;4.75;;;2.38;;
18425;SDS011;9340;48.756;9.226;2022-07-18T12:51:45;2.45;;;2.25;;
18425;SDS011;9340;48.756;9.226;2022-07-18T12:54:12;2.33;;;2.13;;
18425;SDS011;9340;48.756;9.226;2022-07-18T12:56:39;2.97;;;2.20;;
18425;SDS011;9340;48.756;9.226;2022-07-18T12:59:06;2.20;;;2.00;;
18425;SDS011;9340;48.756;9.226;2022-07-18T13:01:34;4.05;;;2.25;;
18425;SDS011;9340;48.756;9.226;2022-07-18T13:04:02;4.10;;;2.33;;
18425;SDS011;9340;48.756;9.226;2022-07-18T13:06:29;3.90;;;2.25;;
18425;SDS011;9340;48.756;9.226;2022-07-18T13:08:56;2.15;;;2.03;;
18425;SDS011;9340;48.756;9.226;2022-07-18T13:11:23;3.85;;;2.58;;
18425;SDS011;9340;48.756;9.226;2022-07-18T13:13:49;4.10;;;2.22;;
18425;SDS011;9340;48.756;9.226;2022-07-18T13:16:16;2.42;;;2.22;;
18425;SDS011;9340;48.756;9.226;2022-07-18T13:18:44;3.08;;;2.30;;
18425;SDS011;9340;48.756;9.226;2022-07-18T13:21:11;2.40;;;2.20;;
18425;SDS011;9340;48.756;9.226;2022-07-18T13:23:38;2.25;;;1.90;;
18425;SDS011;9340;48.756;9.226;2022-07-18T13:26:04;2.50;;;2.30;;
18425;SDS011;9340;48.756;9.226;2022-07-18T13:28:31;4.60;;;2.25;;
18425;SDS011;9340;48.756;9.226;2022-07-18T13:30:58;5.50;;;2.22;;
18425;SDS011;9340;48.756;9.226;2022-07-18T13:33:24;2.35;;;2.20;;
18425;SDS011;9340;48.756;9.226;2022-07-18T13:35:52;2.25;;;2.05;;
18425;SDS011;9340;48.756;9.226;2022-07-18T13:38:19;4.43;;;2.40;;
18425;SDS011;9340;48.756;9.226;2022-07-18T13:40:46;3.72;;;2.30;;
18425;SDS011;9340;48.756;9.226;2022-07-18T13:43:12;2.33;;;2.00;;
18425;SDS011;9340;48.756;9.226;2022-07-18T13:45:39;2.25;;;2.05;;
18425;SDS011;9340;48.756;9.226;2022-07-18T13:48:06;2.53;;;2.33;;
18425;SDS011;9340;48.756;9.226;2022-07-18T13:50:32;2.40;;;2.13;;
18425;SDS011;9340;48.756;9.226;2022-07-18T13:53:00;3.67;;;2.10;;
18425;SDS011;9340;48.756;9.226;2022-07-18T13:55:27;2.47;;;2.28;;
18425;SDS011;9340;48.756;9.226;2022-07-18T13:57:54;2.42;;;2.22;;
18425;SDS011;9340;48.756;9.226;2022-07-18T14:00:20;2.22;;;2.03;;
18425;SDS011;9340;48.756;9.226;2022-07-18T14:02:47;2.97;;;2.10;;
18425;SDS011;9340;48.756;9.226;2022-07-18T14:05:14;2.38;;;2.10;;
18425;SDS011;9340;48.756;9.226;2022-07-18T14:07:40;3.05;;;2.00;;
18425;SDS011;9340;48.756;9.226;2022-07-18T14:10:10;2.22;;;2.03;;
18425;SDS011;9340;48.756;9.226;2022-07-18T14:12:37;4.18;;;2.00;;
18425;SDS011;9340;48.756;9.226;2022-07-18T14:15:04;2.78;;;2.22;;
18425;SDS011;9340;48.756;9.226;2022-07-18T14:17:31;2.88;;;2.35;;
18425;SDS011;9340;48.756;9.226;2022-07-18T14:19:58;2.75;;;2.55;;
18425;SDS011;9340;48.756;9.226;2022-07-18T14:22:25;2.50;;;2.30;;
18425;SDS011;9340;48.756;9.226;2022-07-18T14:24:52;3.30;;;2.40;;
18425;SDS011;9340;48.756;9.226;2022-07-18T14:27:20;3.00;;;2.63;;
18425;SDS011;9340;48.756;9.226;2022-07-18T14:29:47;3.15;;;2.30;;
18425;SDS011;9340;48.756;9.226;2022-07-18T14:32:13;5.28;;;2.58;;
18425;SDS011;9340;48.756;9.226;2022-07-18T14:34:40;3.70;;;2.40;;
18425;SDS011;9340;48.756;9.226;2022-07-18T14:37:07;3.80;;;2.13;;
18425;SDS011;9340;48.756;9.226;2022-07-18T14:39:33;2.83;;;2.40;;
18425;SDS011;9340;48.756;9.226;2022-07-18T14:42:00;4.10;;;2.65;;
18425;SDS011;9340;48.756;9.226;2022-07-18T14:44:28;2.08;;;1.98;;
18425;SDS011;9340;48.756;9.226;2022-07-18T14:46:55;2.80;;;2.55;;
18425;SDS011;9340;48.756;9.226;2022-07-18T14:49:21;3.55;;;2.40;;
18425;SDS011;9340;48.756;9.226;2022-07-18T14:51:48;2.40;;;2.00;;
18425;SDS011;9340;48.756;9.226;2022-07-18T14:54:15;2.53;;;2.33;;
18425;SDS011;9340;48.756;9.226;2022-07-18T14:56:41;2.97;;;2.35;;
18425;SDS011;9340;48.756;9.226;2022-07-18T14:59:08;2.30;;;2.10;;
18425;SDS011;9340;48.756;9.226;2022-07-18T15:01:36;2.28;;;2.10;;
18425;SDS011;9340;48.756;9.226;2022-07-18T15:04:03;2.70;;;2.50;;
18425;SDS011;9340;48.756;9.226;2022-07-18T15:06:30;3.05;;;2.28;;
18425;SDS011;9340;48.756;9.226;2022-07-18T15:08:56;5.03;;;2.83;;
18425;SDS011;9340;48.756;9.226;2022-07-18T15:11:23;3.65;;;2.88;;
18425;SDS011;9340;48.756;9.226;2022-07-18T15:13:50;2.80;;;2.60;;
18425;SDS011;9340;48.756;9.226;2022-07-18T15:16:17;2.80;;;2.60;;
18425;SDS011;9340;48.756;9.226;2022-07-18T15:18:45;4.63;;;2.60;;
18425;SDS011;9340;48.756;9.226;2022-07-18T15:21:12;4.93;;;3.35;;
18425;SDS011;9340;48.756;9.226;2022-07-18T15:23:38;3.78;;;2.65;;